First Clarity — A8RM8 — position and weather

sailwx.info

Track history (hours):
 
Tides and Currents Weather Stations Pressure Air Temp Water Temp Dewpoint Dewpoint Depression Visibility Wind Speed Wind Dir Waves Ship Positions

First Clarity

Last reported at 2015-Jan-19 04:32 UTC. Time now 2015-Jan-30 02:38 UTC.
Position N 34°02' E 130°50'.
Warning: this ship's position is 10 days out of date.

Length 104 m; draft 5.4 m.

Type: Ship. MMSI: 636014129.

Date/timePositionNaut miles runAvg speedWind from/ knotsBaromVisibWave heightAir tempDewpointWater temp
2015-Jan-19 04:32N 34°02' E 130°50'  
2015-Jan-16 14:33N 34°59' E 139°29'9 9.1
2015-Jan-16 13:33N 35°04' E 139°39'9 9.3
2015-Jan-16 12:33N 35°11' E 139°45'9 9.3
2015-Jan-16 11:33N 35°20' E 139°42'5 5.2
2015-Jan-16 10:31N 35°24' E 139°38'0 0.0
2015-Jan-16 09:31N 35°24' E 139°38'0 0.0
2015-Jan-16 08:31N 35°24' E 139°38'0 0.0
2015-Jan-16 07:31N 35°24' E 139°38'0 0.0
2015-Jan-16 06:31N 35°24' E 139°38'0 0.0
2015-Jan-16 05:31N 35°24' E 139°38'0 0.0
2015-Jan-16 04:31N 35°24' E 139°38'0 0.0
2015-Jan-16 03:31N 35°24' E 139°38'0 0.0
2015-Jan-16 02:31N 35°24' E 139°38'0 0.0
2015-Jan-16 01:31N 35°24' E 139°38'0 0.0
2015-Jan-16 00:31N 35°24' E 139°38'0 0.0
2015-Jan-15 23:28N 35°24' E 139°38'0 0.1
2015-Jan-15 22:33N 35°25' E 139°39'2 1.7
2015-Jan-15 21:33N 35°23' E 139°40'0 0.0
2015-Jan-15 20:33N 35°23' E 139°40'0 0.0
2015-Jan-15 19:33N 35°23' E 139°40'0 0.0
2015-Jan-15 18:33N 35°23' E 139°40'0 0.0
2015-Jan-15 17:33N 35°23' E 139°40'0 0.1
2015-Jan-15 16:33N 35°23' E 139°40'0 0.1
2015-Jan-15 15:33N 35°23' E 139°40'0 0.0
2015-Jan-15 14:33N 35°23' E 139°40'0 0.1
2015-Jan-15 13:32N 35°23' E 139°40'0 0.0
2015-Jan-15 12:32N 35°23' E 139°40'0 0.0
2015-Jan-15 11:33N 35°23' E 139°40'0 0.0
2015-Jan-15 10:34N 35°23' E 139°40'0 0.0
2015-Jan-15 09:31N 35°23' E 139°40'0 0.1
2015-Jan-15 08:33N 35°23' E 139°40'7 7.1
2015-Jan-15 07:33N 35°17' E 139°45'8 7.9
2015-Jan-15 06:33N 35°10' E 139°47'8 7.5
2015-Jan-15 05:33N 35°03' E 139°43'8 8.2
2015-Jan-15 04:33N 34°58' E 139°35'18 8.5
2015-Jan-15 02:26N 34°47' E 139°17'  
2015-Jan-10 05:30N 34°02' E 130°50'  
Track history (hours):
 
Tides and Currents Weather Stations Pressure Air Temp Water Temp Dewpoint Dewpoint Depression Visibility Wind Speed Wind Dir Waves Ship Positions

First Clarity

Last reported at 2015-Jan-19 04:32 UTC. Time now 2015-Jan-30 02:38 UTC.
Position N 34°02' E 130°50'.
Warning: this ship's position is 10 days out of date.

Length 104 m; draft 5.4 m.

Type: Ship. MMSI: 636014129.

Date/timePositionNaut miles runAvg speedWind from/ knotsBaromVisibWave heightAir tempDewpointWater temp
2015-Jan-19 04:32N 34°02' E 130°50'  
2015-Jan-16 14:33N 34°59' E 139°29'9 9.1
2015-Jan-16 13:33N 35°04' E 139°39'9 9.3
2015-Jan-16 12:33N 35°11' E 139°45'9 9.3
2015-Jan-16 11:33N 35°20' E 139°42'5 5.2
2015-Jan-16 10:31N 35°24' E 139°38'0 0.0
2015-Jan-16 09:31N 35°24' E 139°38'0 0.0
2015-Jan-16 08:31N 35°24' E 139°38'0 0.0
2015-Jan-16 07:31N 35°24' E 139°38'0 0.0
2015-Jan-16 06:31N 35°24' E 139°38'0 0.0
2015-Jan-16 05:31N 35°24' E 139°38'0 0.0
2015-Jan-16 04:31N 35°24' E 139°38'0 0.0
2015-Jan-16 03:31N 35°24' E 139°38'0 0.0
2015-Jan-16 02:31N 35°24' E 139°38'0 0.0
2015-Jan-16 01:31N 35°24' E 139°38'0 0.0
2015-Jan-16 00:31N 35°24' E 139°38'0 0.0
2015-Jan-15 23:28N 35°24' E 139°38'0 0.1
2015-Jan-15 22:33N 35°25' E 139°39'2 1.7
2015-Jan-15 21:33N 35°23' E 139°40'0 0.0
2015-Jan-15 20:33N 35°23' E 139°40'0 0.0
2015-Jan-15 19:33N 35°23' E 139°40'0 0.0
2015-Jan-15 18:33N 35°23' E 139°40'0 0.0
2015-Jan-15 17:33N 35°23' E 139°40'0 0.1
2015-Jan-15 16:33N 35°23' E 139°40'0 0.1
2015-Jan-15 15:33N 35°23' E 139°40'0 0.0
2015-Jan-15 14:33N 35°23' E 139°40'0 0.1
2015-Jan-15 13:32N 35°23' E 139°40'0 0.0
2015-Jan-15 12:32N 35°23' E 139°40'0 0.0
2015-Jan-15 11:33N 35°23' E 139°40'0 0.0
2015-Jan-15 10:34N 35°23' E 139°40'0 0.0
2015-Jan-15 09:31N 35°23' E 139°40'0 0.1
2015-Jan-15 08:33N 35°23' E 139°40'7 7.1
2015-Jan-15 07:33N 35°17' E 139°45'8 7.9
2015-Jan-15 06:33N 35°10' E 139°47'8 7.5
2015-Jan-15 05:33N 35°03' E 139°43'8 8.2
2015-Jan-15 04:33N 34°58' E 139°35'18 8.5
2015-Jan-15 02:26N 34°47' E 139°17'  
2015-Jan-10 05:30N 34°02' E 130°50'  

Dump ship's entire track history